Time;durP1;ratioP1;P1;durP2;ratioP2;P2;SDS_P1;SDS_P2;PMS_P1;PMS_P2;Temp;Humidity;BMP_temperature;BMP_pressure;BME280_temperature;BME280_humidity;BME280_pressure;Samples;Min_cycle;Max_cycle;Signal;HPM_P1;HPM_P2
2023/08/16 00:02:00;;;;;;;9.82;4.72;;;;;;;15.14;98.67;102061.38;6100054;19;20011;-74
2023/08/16 00:04:06;;;;;;;10.02;4.80;;;;;;;15.12;98.37;102060.56;6101941;19;20089;-75
2023/08/16 00:06:12;;;;;;;9.07;4.85;;;;;;;15.08;99.25;102058.09;6100020;19;20020;-74
2023/08/16 00:08:17;;;;;;;8.63;4.60;;;;;;;15.03;99.46;102055.63;6101423;19;20419;-75
2023/08/16 00:10:22;;;;;;;9.43;4.85;;;;;;;15.00;99.92;102053.13;6099088;19;20098;-76
2023/08/16 00:12:27;;;;;;;9.93;5.15;;;;;;;14.93;100.00;102051.66;6099302;19;20010;-74
2023/08/16 00:14:32;;;;;;;12.02;4.90;;;;;;;14.87;100.00;102044.78;6088514;19;20003;-74
2023/08/16 00:16:37;;;;;;;9.93;4.72;;;;;;;14.88;100.00;102049.19;6101099;19;20086;-74
2023/08/16 00:18:42;;;;;;;10.93;5.38;;;;;;;14.88;100.00;102053.63;6101289;19;20512;-76
2023/08/16 00:20:47;;;;;;;9.73;4.97;;;;;;;14.95;100.00;102062.16;6103049;19;20097;-75
2023/08/16 00:22:55;;;;;;;10.88;5.30;;;;;;;15.01;100.00;102061.91;6099761;19;20090;-74
2023/08/16 00:25:00;;;;;;;10.15;4.63;;;;;;;15.05;100.00;102068.81;6102972;19;20010;-74
2023/08/16 00:27:05;;;;;;;12.77;5.30;;;;;;;15.08;100.00;102068.69;6100875;19;20010;-76
2023/08/16 00:29:13;;;;;;;10.55;4.78;;;;;;;15.06;100.00;102075.81;6097811;19;20531;-75
2023/08/16 00:31:18;;;;;;;10.73;4.70;;;;;;;15.04;100.00;102075.06;6100212;19;20023;-74
2023/08/16 00:33:21;;;;;;;10.93;5.63;;;;;;;14.98;100.00;102075.28;6095667;19;20617;-74
2023/08/16 00:35:29;;;;;;;;;;;;;;;14.95;100.00;102068.31;6099324;19;20014;-74
2023/08/16 00:37:34;;;;;;;11.60;5.05;;;;;;;14.88;100.00;102080.94;6100476;19;20442;-74
2023/08/16 00:39:40;;;;;;;10.95;4.45;;;;;;;14.86;100.00;102084.56;6097534;19;20010;-75
2023/08/16 00:41:48;;;;;;;9.77;5.18;;;;;;;14.88;100.00;102080.94;6098835;19;20543;-75
2023/08/16 00:43:59;;;;;;;8.60;5.15;;;;;;;14.82;100.00;102077.66;6080984;19;20006;-74
2023/08/16 00:46:08;;;;;;;8.77;4.82;;;;;;;14.80;100.00;102083.03;6099027;19;20014;-74
2023/08/16 00:48:15;;;;;;;11.52;4.80;;;;;;;14.72;100.00;102079.81;6100160;19;20494;-74
2023/08/16 00:50:23;;;;;;;13.23;4.97;;;;;;;14.65;100.00;102078.31;6102924;19;20511;-74
2023/08/16 00:52:29;;;;;;;10.82;4.80;;;;;;;14.61;100.00;102084.63;6095295;19;20784;-75
2023/08/16 00:54:32;;;;;;;6.90;4.22;;;;;;;14.59;100.00;102081.19;6101257;19;20018;-74
2023/08/16 00:56:38;;;;;;;13.75;5.93;;;;;;;14.56;100.00;102086.56;6100115;19;20510;-74
2023/08/16 00:58:44;;;;;;;10.70;5.05;;;;;;;14.55;100.00;102080.44;6101868;19;20010;-75
2023/08/16 01:00:50;;;;;;;8.63;5.07;;;;;;;14.56;100.00;102083.94;6085859;19;20010;-75
2023/08/16 01:02:57;;;;;;;9.88;5.00;;;;;;;14.61;100.00;102087.25;6103365;19;20014;-74
2023/08/16 01:05:03;;;;;;;12.88;5.32;;;;;;;14.58;100.00;102082.94;6103060;19;20349;-74
2023/08/16 01:07:09;;;;;;;10.02;4.85;;;;;;;14.56;100.00;102083.94;6106404;19;20007;-76
2023/08/16 01:09:14;;;;;;;7.60;4.63;;;;;;;14.50;100.00;102088.50;6102876;19;20014;-76
2023/08/16 01:11:24;;;;;;;9.25;4.90;;;;;;;14.46;100.00;102089.53;6101784;19;20467;-75
2023/08/16 01:13:34;;;;;;;10.60;5.18;;;;;;;14.47;100.00;102083.31;6102377;19;20003;-75
2023/08/16 01:15:43;;;;;;;9.73;3.85;;;;;;;14.50;100.00;102083.19;6096734;19;20010;-75
2023/08/16 01:17:51;;;;;;;8.77;4.57;;;;;;;14.52;100.00;102083.16;6100363;19;20106;-74
2023/08/16 01:20:00;;;;;;;11.57;4.97;;;;;;;14.53;100.00;102091.97;6090521;19;20017;-74
2023/08/16 01:22:22;;;;;;;10.95;4.97;;;;;;;14.54;100.00;102096.38;6100195;19;20009;-75
2023/08/16 01:24:40;;;;;;;10.80;4.65;;;;;;;14.49;100.00;102094.72;6099728;19;20034;-74
2023/08/16 01:26:50;;;;;;;11.93;5.90;;;;;;;14.42;100.00;102101.13;6103094;19;20892;-74
2023/08/16 01:28:53;;;;;;;9.82;4.70;;;;;;;14.40;100.00;102103.00;6100352;19;20014;-75
2023/08/16 01:31:07;;;;;;;9.50;5.47;;;;;;;14.42;100.00;102108.22;6099584;19;20085;-75
2023/08/16 01:33:14;;;;;;;11.15;5.80;;;;;;;14.38;100.00;102112.75;6096779;19;20022;-75
2023/08/16 01:35:19;;;;;;;11.90;5.50;;;;;;;14.33;100.00;102109.41;6093843;19;20042;-74
2023/08/16 01:37:25;;;;;;;10.85;5.75;;;;;;;14.30;100.00;102114.81;6096625;19;20042;-75
2023/08/16 01:39:30;;;;;;;11.38;5.28;;;;;;;14.31;100.00;102113.91;6094852;19;20002;-74
2023/08/16 01:41:43;;;;;;;12.00;5.43;;;;;;;14.26;100.00;102116.69;6096444;19;20103;-75
2023/08/16 01:43:51;;;;;;;12.85;5.93;;;;;;;14.16;100.00;102111.78;6097200;19;20489;-76
2023/08/16 01:45:58;;;;;;;10.57;5.18;;;;;;;14.17;100.00;102116.19;6096664;19;20005;-74
2023/08/16 01:48:08;;;;;;;12.05;5.72;;;;;;;14.18;100.00;102112.59;6099667;19;20335;-75
2023/08/16 01:50:13;;;;;;;10.35;5.25;;;;;;;14.15;100.00;102113.56;6097609;19;20348;-73
2023/08/16 01:52:19;;;;;;;12.10;5.72;;;;;;;14.14;100.00;102110.97;6093438;19;20042;-71
2023/08/16 01:54:24;;;;;;;12.68;5.60;;;;;;;14.11;100.00;102111.09;6092153;19;20339;-71
2023/08/16 01:56:29;;;;;;;12.73;5.97;;;;;;;14.09;100.00;102110.28;6096969;19;20469;-71
2023/08/16 01:58:32;;;;;;;13.95;6.03;;;;;;;14.05;100.00;102105.09;6098921;19;20014;-72
2023/08/16 02:00:39;;;;;;;14.60;5.72;;;;;;;14.09;100.00;102107.66;6099234;19;20038;-71
2023/08/16 02:02:45;;;;;;;10.40;5.00;;;;;;;14.05;100.00;102105.09;6100618;19;20006;-72
2023/08/16 02:04:50;;;;;;;11.93;6.45;;;;;;;14.01;100.00;102108.78;6095380;19;20014;-72
2023/08/16 02:06:55;;;;;;;10.00;5.18;;;;;;;14.00;100.00;102111.47;6098500;19;21027;-72
2023/08/16 02:09:02;;;;;;;12.40;5.93;;;;;;;13.98;100.00;102114.16;6101017;19;20030;-71
2023/08/16 02:11:10;;;;;;;9.80;5.25;;;;;;;13.93;100.00;102113.47;6100764;19;20527;-71
2023/08/16 02:13:15;;;;;;;10.70;5.10;;;;;;;13.90;100.00;102113.56;6094309;19;20028;-71
2023/08/16 02:15:18;;;;;;;15.02;6.80;;;;;;;13.90;100.00;102113.56;6099110;19;20015;-71
2023/08/16 02:17:25;;;;;;;9.63;5.72;;;;;;;13.91;100.00;102117.06;6098971;19;20105;-71
2023/08/16 02:19:30;;;;;;;14.75;6.22;;;;;;;13.91;100.00;102115.28;6094065;19;20010;-72
2023/08/16 02:21:35;;;;;;;11.13;5.82;;;;;;;13.90;100.00;102116.22;6083702;19;20076;-71
2023/08/16 02:23:40;;;;;;;13.50;5.47;;;;;;;13.90;100.00;102112.69;6098045;19;20090;-71
2023/08/16 02:25:43;;;;;;;12.05;5.13;;;;;;;13.87;100.00;102116.28;6099230;19;20100;-73
2023/08/16 02:27:48;;;;;;;11.45;5.82;;;;;;;13.87;100.00;102116.28;6098898;19;20003;-72
2023/08/16 02:29:54;;;;;;;11.05;5.70;;;;;;;13.85;100.00;102123.44;6095496;19;20008;-71
2023/08/16 02:31:59;;;;;;;12.25;6.47;;;;;;;13.82;100.00;102113.84;6094333;19;20007;-72
2023/08/16 02:34:07;;;;;;;11.32;6.00;;;;;;;13.84;100.00;102111.13;6096926;19;20043;-72
2023/08/16 02:36:11;;;;;;;12.70;5.78;;;;;;;13.85;100.00;102115.50;6092850;19;20128;-71
2023/08/16 02:38:18;;;;;;;13.75;6.38;;;;;;;13.90;100.00;102110.03;6098669;19;20554;-73
2023/08/16 02:40:23;;;;;;;15.35;7.55;;;;;;;13.90;100.00;102110.94;6096565;19;20059;-71
2023/08/16 02:42:30;;;;;;;19.17;7.65;;;;;;;13.90;100.00;102115.31;6097806;19;20217;-72
2023/08/16 02:44:35;;;;;;;17.02;8.70;;;;;;;13.94;100.00;102112.53;6096764;19;20901;-72
2023/08/16 02:46:41;;;;;;;15.00;8.02;;;;;;;13.94;100.00;102112.53;6092550;19;20053;-73
2023/08/16 02:48:46;;;;;;;18.15;7.75;;;;;;;13.94;100.00;102115.19;6097614;19;20035;-72
2023/08/16 02:50:53;;;;;;;17.10;8.40;;;;;;;13.92;100.00;102113.50;6097233;19;20514;-71
2023/08/16 02:52:58;;;;;;;19.98;9.50;;;;;;;13.89;100.00;102125.03;6096787;19;20007;-71
2023/08/16 02:55:04;;;;;;;16.88;7.97;;;;;;;13.90;100.00;102120.59;6100233;19;20010;-73
2023/08/16 02:57:09;;;;;;;17.48;8.57;;;;;;;13.89;100.00;102117.13;6105443;19;20040;-72
2023/08/16 02:59:16;;;;;;;17.05;8.52;;;;;;;13.92;100.00;102121.44;6106100;19;20007;-71
2023/08/16 03:01:21;;;;;;;18.08;9.40;;;;;;;13.94;100.00;102122.25;6104211;19;20344;-72
2023/08/16 03:03:29;;;;;;;16.33;8.23;;;;;;;13.95;100.00;102116.91;6100113;19;20323;-71
2023/08/16 03:05:31;;;;;;;16.02;8.05;;;;;;;13.94;100.00;102123.09;6099707;19;20028;-71
2023/08/16 03:07:39;;;;;;;17.80;9.38;;;;;;;13.92;100.00;102124.06;6099755;19;20002;-72
2023/08/16 03:09:44;;;;;;;19.80;8.68;;;;;;;13.88;100.00;102128.59;6101439;19;20028;-72
2023/08/16 03:11:50;;;;;;;16.42;8.00;;;;;;;13.88;100.00;102125.97;6095886;19;20015;-72
2023/08/16 03:13:55;;;;;;;17.95;8.30;;;;;;;13.94;100.00;102123.09;6099415;19;20007;-71
2023/08/16 03:15:57;;;;;;;15.68;8.20;;;;;;;13.98;100.00;102124.75;6097605;19;20011;-71
2023/08/16 03:18:02;;;;;;;14.20;7.40;;;;;;;13.98;100.00;102121.22;6100627;19;20006;-72
2023/08/16 03:20:39;;;;;;;17.48;7.70;;;;;;;13.92;100.00;102127.56;6078597;19;20014;-72
2023/08/16 03:23:11;;;;;;;13.63;7.38;;;;;;;13.97;100.00;102133.56;6086158;19;20647;-72
2023/08/16 03:25:17;;;;;;;16.60;9.80;;;;;;;13.97;100.00;102127.44;6099496;19;20006;-71
2023/08/16 03:27:21;;;;;;;15.82;8.25;;;;;;;13.92;100.00;102132.84;6102123;19;20470;-72
2023/08/16 03:29:28;;;;;;;17.98;9.07;;;;;;;13.85;100.00;102141.94;6101974;19;20011;-73
2023/08/16 03:31:33;;;;;;;15.50;7.63;;;;;;;13.84;100.00;102142.81;6101003;19;20006;-71
2023/08/16 03:33:38;;;;;;;15.02;8.00;;;;;;;13.78;100.00;102143.03;6094244;19;20542;-72
2023/08/16 03:35:43;;;;;;;14.48;7.35;;;;;;;13.74;100.00;102144.03;6100992;19;20030;-72
2023/08/16 03:37:48;;;;;;;14.93;7.28;;;;;;;13.73;100.00;102144.97;6100101;19;20361;-73
2023/08/16 03:39:57;;;;;;;16.25;7.30;;;;;;;13.70;100.00;102148.56;6101524;19;20013;-72
2023/08/16 03:42:02;;;;;;;15.60;8.23;;;;;;;13.68;100.00;102141.59;6098025;19;20006;-72
2023/08/16 03:44:08;;;;;;;15.98;7.88;;;;;;;13.62;100.00;102150.59;6100877;19;20012;-71
2023/08/16 03:46:13;;;;;;;17.65;7.75;;;;;;;13.63;100.00;102154.09;6100044;19;20645;-71
2023/08/16 03:48:18;;;;;;;17.30;9.15;;;;;;;13.65;100.00;102152.28;6100988;19;20158;-71
2023/08/16 03:50:23;;;;;;;15.57;8.30;;;;;;;13.61;100.00;102144.47;6098800;19;20433;-72
2023/08/16 03:52:28;;;;;;;15.73;8.27;;;;;;;13.59;100.00;102145.44;6099127;19;20081;-71
2023/08/16 03:54:33;;;;;;;19.58;9.18;;;;;;;13.55;100.00;102149.91;6098986;19;20532;-71
2023/08/16 03:56:41;;;;;;;14.88;7.20;;;;;;;13.51;100.00;102150.94;6101237;19;20541;-73
2023/08/16 03:58:46;;;;;;;16.33;7.97;;;;;;;13.44;100.00;102149.41;6102426;19;20043;-73
2023/08/16 04:00:53;;;;;;;14.98;6.82;;;;;;;13.42;100.00;102145.09;6099497;19;20483;-73
2023/08/16 04:02:58;;;;;;;18.20;8.48;;;;;;;13.42;100.00;102140.66;6100832;19;20755;-73
2023/08/16 04:05:10;;;;;;;14.73;7.38;;;;;;;13.41;100.00;102146.88;6098218;19;20548;-71
2023/08/16 04:07:15;;;;;;;17.20;8.40;;;;;;;13.40;100.00;102142.47;6096382;19;20055;-71
2023/08/16 04:09:20;;;;;;;15.60;7.30;;;;;;;13.35;100.00;102136.50;6098862;19;20470;-72
2023/08/16 04:11:25;;;;;;;17.42;7.72;;;;;;;13.35;100.00;102139.16;6102200;19;20022;-73
2023/08/16 04:13:32;;;;;;;17.45;9.10;;;;;;;13.33;100.00;102146.25;6098382;19;20007;-74
2023/08/16 04:15:38;;;;;;;21.27;9.98;;;;;;;13.42;100.00;102151.22;6103918;19;20082;-76
2023/08/16 04:17:43;;;;;;;16.92;8.63;;;;;;;13.45;100.00;102151.13;6103393;19;20002;-76
2023/08/16 04:19:48;;;;;;;20.83;10.43;;;;;;;13.42;100.00;102148.59;6100900;19;20403;-76
2023/08/16 04:21:56;;;;;;;19.05;9.15;;;;;;;13.40;100.00;102155.69;6104394;19;20479;-73
2023/08/16 04:24:01;;;;;;;20.73;9.32;;;;;;;13.39;100.00;102154.81;6098141;19;20014;-72
2023/08/16 04:26:07;;;;;;;18.60;8.63;;;;;;;13.40;100.00;102150.41;6100378;19;20052;-71
2023/08/16 04:28:12;;;;;;;20.50;9.32;;;;;;;13.35;100.00;102155.00;6099522;19;20039;-72
2023/08/16 04:30:20;;;;;;;19.02;9.73;;;;;;;13.35;100.00;102149.72;6102944;19;20425;-73
2023/08/16 04:32:29;;;;;;;21.92;10.48;;;;;;;13.30;100.00;102144.56;6096726;19;20326;-72
2023/08/16 04:34:34;;;;;;;20.67;9.45;;;;;;;13.30;100.00;102141.06;6101018;19;20014;-72
2023/08/16 04:36:39;;;;;;;19.08;9.45;;;;;;;13.30;100.00;102143.72;6099531;19;20017;-74
2023/08/16 04:38:44;;;;;;;21.00;9.40;;;;;;;13.34;100.00;102142.69;6099510;19;20032;-75
2023/08/16 04:40:51;;;;;;;16.52;9.02;;;;;;;13.35;100.00;102150.56;6095384;19;20010;-75
2023/08/16 04:42:59;;;;;;;20.70;10.55;;;;;;;13.39;100.00;102143.41;6099907;19;20539;-71
2023/08/16 04:45:04;;;;;;;20.23;9.48;;;;;;;13.40;100.00;102145.13;6101240;19;20009;-72
2023/08/16 04:47:11;;;;;;;19.88;9.85;;;;;;;13.41;100.00;102138.94;6096376;19;20827;-73
2023/08/16 04:49:16;;;;;;;16.20;8.48;;;;;;;13.47;100.00;102138.75;6098188;19;20014;-71
2023/08/16 04:51:21;;;;;;;19.73;9.32;;;;;;;13.48;100.00;102140.50;6100961;19;20586;-71
2023/08/16 04:53:29;;;;;;;21.73;9.98;;;;;;;13.49;100.00;102142.19;6099003;19;20651;-71
2023/08/16 04:55:34;;;;;;;19.17;9.63;;;;;;;13.51;100.00;102143.03;6098793;19;20010;-71
2023/08/16 04:57:39;;;;;;;22.00;8.82;;;;;;;13.51;100.00;102153.59;6096740;19;20047;-71
2023/08/16 04:59:45;;;;;;;19.38;9.20;;;;;;;13.57;100.00;102153.38;6100272;19;20019;-71
2023/08/16 05:01:51;;;;;;;21.75;9.80;;;;;;;13.61;100.00;102149.75;6101280;19;20066;-75
2023/08/16 05:03:59;;;;;;;21.80;9.27;;;;;;;13.68;100.00;102146.91;6100307;19;20010;-71
2023/08/16 05:06:06;;;;;;;18.58;10.15;;;;;;;13.66;100.00;102149.56;6089644;19;20006;-73
2023/08/16 05:08:11;;;;;;;22.30;9.43;;;;;;;13.64;100.00;102145.25;6099303;19;20078;-74
2023/08/16 05:10:17;;;;;;;21.95;10.13;;;;;;;13.64;100.00;102148.78;6100089;19;20626;-72
2023/08/16 05:12:24;;;;;;;25.13;9.73;;;;;;;13.69;100.00;102149.50;6097994;19;20420;-75
2023/08/16 05:14:29;;;;;;;17.55;8.32;;;;;;;13.78;100.00;102143.03;6097678;19;20029;-73
2023/08/16 05:16:34;;;;;;;17.20;9.25;;;;;;;13.89;100.00;102151.47;6093790;19;21253;-74
2023/08/16 05:18:37;;;;;;;19.27;10.55;;;;;;;13.99;100.00;102160.81;6098333;19;20652;-74
2023/08/16 05:20:47;;;;;;;18.52;11.05;;;;;;;14.10;100.00;102160.44;6098276;19;20522;-74
2023/08/16 05:22:55;;;;;;;21.98;9.27;;;;;;;14.24;100.00;102158.22;6097022;19;20107;-74
2023/08/16 05:25:00;;;;;;;22.85;9.52;;;;;;;14.36;100.00;102156.03;6098128;19;20006;-75
2023/08/16 05:27:02;;;;;;;18.60;8.85;;;;;;;14.36;100.00;102164.84;6097076;19;20006;-73
2023/08/16 05:29:08;;;;;;;21.20;10.32;;;;;;;14.32;100.00;102155.28;6098610;19;20471;-73
2023/08/16 05:31:15;;;;;;;20.55;8.90;;;;;;;14.33;100.00;102161.44;6098457;19;20099;-72
2023/08/16 05:33:20;;;;;;;18.27;8.15;;;;;;;14.33;100.00;102162.31;6096864;19;20018;-72
2023/08/16 05:35:26;;;;;;;18.38;9.60;;;;;;;14.33;100.00;102162.31;6095372;19;20411;-71
2023/08/16 05:37:34;;;;;;;18.88;10.23;;;;;;;14.39;100.00;102172.66;6095908;19;20032;-73
2023/08/16 05:39:39;;;;;;;18.85;9.75;;;;;;;14.52;100.00;102172.22;6098866;19;20013;-72
2023/08/16 05:41:47;;;;;;;17.23;8.80;;;;;;;14.67;100.00;102169.06;6100331;19;20758;-73
2023/08/16 05:43:52;;;;;;;19.60;9.30;;;;;;;14.75;100.00;102174.94;6096875;19;20010;-73
2023/08/16 05:45:58;;;;;;;24.10;10.02;;;;;;;15.03;100.00;102169.47;6096905;19;20035;-73
2023/08/16 05:48:05;;;;;;;20.48;10.98;;;;;;;15.05;100.00;102167.63;6096303;19;20654;-72
2023/08/16 05:50:11;;;;;;;19.63;10.18;;;;;;;15.06;100.00;102165.84;6093314;19;20030;-72
2023/08/16 05:52:16;;;;;;;17.98;9.77;;;;;;;15.11;100.00;102166.53;6091108;19;20031;-73
2023/08/16 05:54:25;;;;;;;19.83;9.57;;;;;;;15.13;100.00;102176.13;6094425;19;20486;-73
2023/08/16 05:56:30;;;;;;;16.35;9.57;;;;;;;15.20;100.00;102171.50;6083498;19;20502;-72
2023/08/16 05:58:33;;;;;;;23.27;10.65;;;;;;;15.24;100.00;102170.44;6090233;19;20771;-71
2023/08/16 06:00:38;;;;;;;18.65;9.13;;;;;;;15.32;100.00;102181.63;6094384;19;20014;-72
2023/08/16 06:02:40;;;;;;;17.20;9.55;;;;;;;15.39;100.00;102186.66;6092719;19;20074;-72
2023/08/16 06:04:47;;;;;;;17.35;8.82;;;;;;;15.43;100.00;102189.13;6094460;19;20003;-71
2023/08/16 06:07:06;;;;;;;16.75;8.75;;;;;;;15.53;100.00;102192.25;6089966;19;20003;-72
2023/08/16 06:09:11;;;;;;;18.55;10.05;;;;;;;15.58;100.00;102187.66;6091871;19;20046;-74
2023/08/16 06:11:19;;;;;;;17.40;8.70;;;;;;;15.69;100.00;102188.13;6098024;19;20058;-75
2023/08/16 06:13:26;;;;;;;20.15;9.07;;;;;;;15.75;100.00;102193.19;6098588;19;20010;-76
2023/08/16 06:15:31;;;;;;;17.90;9.13;;;;;;;15.86;100.00;102199.84;6093677;19;20010;-74
2023/08/16 06:17:37;;;;;;;19.27;9.27;;;;;;;15.94;100.00;102189.78;6099986;19;20018;-74
2023/08/16 06:19:42;;;;;;;16.45;8.85;;;;;;;16.15;100.00;102188.88;6097962;19;20006;-75
2023/08/16 06:21:47;;;;;;;21.02;9.65;;;;;;;16.41;100.00;102189.56;6096069;19;20015;-75
2023/08/16 06:23:56;;;;;;;19.15;9.65;;;;;;;16.70;100.00;102190.91;6096975;19;20038;-75
2023/08/16 06:26:01;;;;;;;19.27;10.23;;;;;;;17.01;100.00;102192.19;6083397;19;20035;-75
2023/08/16 06:28:09;;;;;;;21.55;10.75;;;;;;;17.03;99.59;102191.19;6096202;19;20475;-75
2023/08/16 06:30:15;;;;;;;19.73;10.02;;;;;;;17.14;99.23;102193.38;6100869;19;20517;-74
2023/08/16 06:32:21;;;;;;;18.33;9.18;;;;;;;17.62;97.53;102185.81;6102739;19;20074;-75
2023/08/16 06:34:29;;;;;;;18.15;9.82;;;;;;;18.02;95.51;102194.50;6102538;19;20002;-74
2023/08/16 06:36:35;;;;;;;20.20;10.07;;;;;;;18.38;93.35;102187.28;6101140;19;20451;-75
2023/08/16 06:38:44;;;;;;;15.57;8.60;;;;;;;18.55;91.44;102183.75;6098810;19;20010;-74
2023/08/16 06:40:57;;;;;;;16.75;9.57;;;;;;;18.80;90.68;102187.78;6104427;19;20011;-74
2023/08/16 06:43:02;;;;;;;;;;;;;;;18.89;89.67;102192.63;6098558;19;20014;-72
2023/08/16 06:45:13;;;;;;;13.25;7.57;;;;;;;19.18;89.19;102185.72;6099962;19;20235;-71
2023/08/16 06:47:17;;;;;;;15.90;7.97;;;;;;;19.24;87.35;102184.50;6101168;19;20018;-71
2023/08/16 06:49:24;;;;;;;11.90;7.43;;;;;;;19.67;86.46;102190.13;6097179;19;20013;-72
2023/08/16 06:51:30;;;;;;;14.45;7.63;;;;;;;19.71;85.51;102194.31;6107887;19;20356;-73
2023/08/16 06:53:38;;;;;;;16.58;7.47;;;;;;;19.85;85.04;102190.84;6101974;19;20010;-72
2023/08/16 06:55:43;;;;;;;14.20;6.43;;;;;;;19.97;82.97;102199.97;6101759;19;20007;-71
2023/08/16 06:57:48;;;;;;;14.45;6.57;;;;;;;20.03;84.30;102194.25;6105228;19;20591;-72
2023/08/16 06:59:56;;;;;;;12.02;6.10;;;;;;;20.15;82.17;102186.38;6101601;19;20078;-72
2023/08/16 07:02:04;;;;;;;11.75;6.45;;;;;;;20.38;82.18;102184.16;6101256;19;20109;-73
2023/08/16 07:04:09;;;;;;;11.30;6.18;;;;;;;20.32;81.62;102189.84;6095077;19;20006;-72
2023/08/16 07:06:14;;;;;;;12.02;5.72;;;;;;;20.59;80.17;102190.88;6104599;19;20074;-73
2023/08/16 07:08:20;;;;;;;11.35;5.53;;;;;;;20.49;80.16;102183.50;6106181;19;20425;-73
2023/08/16 07:10:25;;;;;;;10.52;5.40;;;;;;;20.73;79.90;102191.84;6103056;19;20016;-73
2023/08/16 07:12:30;;;;;;;10.70;6.28;;;;;;;20.61;80.31;102190.78;6101120;19;20354;-74
2023/08/16 07:14:35;;;;;;;12.45;5.60;;;;;;;20.99;78.15;102192.91;6102594;19;20115;-76
2023/08/16 07:16:40;;;;;;;11.90;6.10;;;;;;;20.76;78.49;102192.50;6104752;19;20027;-77
2023/08/16 07:18:48;;;;;;;12.82;5.43;;;;;;;20.76;79.50;102191.66;6100350;19;20006;-73
2023/08/16 07:20:59;;;;;;;10.00;4.63;;;;;;;21.13;77.20;102197.38;6098636;19;20070;-74
2023/08/16 07:23:06;;;;;;;10.98;5.30;;;;;;;21.17;77.90;102189.06;6098485;19;20010;-74
2023/08/16 07:25:13;;;;;;;7.95;4.40;;;;;;;21.05;76.30;102193.34;6096454;19;20463;-72
2023/08/16 07:27:18;;;;;;;9.75;4.68;;;;;;;21.29;75.38;102195.41;6095221;19;20428;-72
2023/08/16 07:29:26;;;;;;;9.50;4.60;;;;;;;21.22;75.46;102191.41;6097523;19;20384;-72
2023/08/16 07:31:32;;;;;;;8.43;4.07;;;;;;;21.44;73.62;102199.81;6096101;19;20018;-74
2023/08/16 07:33:37;;;;;;;9.68;4.53;;;;;;;21.58;72.48;102196.22;6099794;19;20455;-76
2023/08/16 07:35:45;;;;;;;9.05;4.68;;;;;;;21.48;71.70;102193.31;6102885;19;20011;-75
2023/08/16 07:37:50;;;;;;;8.40;4.75;;;;;;;21.78;71.86;102196.75;6102789;19;20856;-74
2023/08/16 07:39:58;;;;;;;7.80;3.80;;;;;;;22.00;71.60;102197.03;6103773;19;20038;-73
2023/08/16 07:42:03;;;;;;;8.93;4.38;;;;;;;21.75;69.88;102203.16;6102038;19;20003;-74
2023/08/16 07:44:09;;;;;;;7.38;4.20;;;;;;;21.74;68.99;102203.25;6098954;19;20006;-75
2023/08/16 07:46:14;;;;;;;8.52;3.97;;;;;;;21.92;69.22;102207.38;6088611;19;20247;-76
2023/08/16 07:48:19;;;;;;;6.18;3.22;;;;;;;21.76;68.56;102207.53;6103429;19;20030;-76
2023/08/16 07:50:25;;;;;;;7.28;3.10;;;;;;;22.10;67.29;102210.66;6103719;19;20051;-75
2023/08/16 07:52:33;;;;;;;7.68;3.53;;;;;;;22.19;68.31;102202.00;6098789;19;20018;-74
2023/08/16 07:54:38;;;;;;;7.20;3.80;;;;;;;22.37;67.83;102209.75;6101705;19;20507;-74
2023/08/16 07:56:43;;;;;;;9.57;3.72;;;;;;;22.41;67.62;102211.25;6101624;19;20007;-75
2023/08/16 07:58:48;;;;;;;7.03;3.30;;;;;;;22.40;65.42;102209.53;6103910;19;20095;-74
2023/08/16 08:00:58;;;;;;;8.50;3.78;;;;;;;22.37;65.51;102215.13;6101578;19;20038;-71
2023/08/16 08:03:01;;;;;;;7.15;2.92;;;;;;;22.72;64.81;102210.88;6098812;19;20038;-73
2023/08/16 08:05:08;;;;;;;8.35;3.30;;;;;;;22.82;64.16;102210.19;6100719;19;20018;-74
2023/08/16 08:07:13;;;;;;;7.80;3.00;;;;;;;22.78;62.54;102210.41;6098806;19;20034;-72
2023/08/16 08:09:21;;;;;;;5.72;2.88;;;;;;;22.86;62.52;102220.59;6096659;19;20576;-71
2023/08/16 08:11:29;;;;;;;7.38;2.70;;;;;;;23.02;61.71;102217.72;6101237;19;20019;-72
2023/08/16 08:13:35;;;;;;;6.82;2.58;;;;;;;23.57;60.00;102218.22;6099921;19;20016;-71
2023/08/16 08:15:40;;;;;;;3.58;2.30;;;;;;;23.18;59.23;102210.28;6103128;19;20014;-72
2023/08/16 08:17:48;;;;;;;5.15;2.47;;;;;;;23.29;58.56;102219.38;6101296;19;20041;-71
2023/08/16 08:19:53;;;;;;;4.35;2.10;;;;;;;22.96;57.55;102219.03;6097974;19;20045;-73
2023/08/16 08:22:01;;;;;;;3.30;1.88;;;;;;;23.11;57.72;102219.72;6095381;19;20459;-72
2023/08/16 08:24:07;;;;;;;5.80;2.55;;;;;;;23.19;56.26;102219.19;6102142;19;20003;-72
2023/08/16 08:26:15;;;;;;;3.80;2.50;;;;;;;23.21;56.73;102211.88;6098276;19;20039;-72
2023/08/16 08:28:18;;;;;;;5.93;2.85;;;;;;;23.55;56.34;102221.00;6094558;19;20637;-71
2023/08/16 08:30:24;;;;;;;4.93;2.55;;;;;;;23.78;55.98;102215.81;6099342;19;20046;-71
2023/08/16 08:32:26;;;;;;;3.83;2.33;;;;;;;23.54;56.44;102223.78;6098034;19;20136;-72
2023/08/16 08:34:32;;;;;;;6.28;2.40;;;;;;;23.32;55.67;102229.88;6098851;19;20042;-71
2023/08/16 08:36:37;;;;;;;4.57;2.40;;;;;;;23.50;55.87;102231.22;6098330;19;20494;-71
2023/08/16 08:38:44;;;;;;;3.45;1.88;;;;;;;23.80;54.82;102232.63;6099464;19;20013;-71
2023/08/16 08:40:50;;;;;;;4.72;2.17;;;;;;;23.92;55.57;102229.03;6097516;19;20026;-72
2023/08/16 08:43:01;;;;;;;6.57;2.60;;;;;;;23.59;56.24;102233.25;6100955;19;20400;-74
2023/08/16 08:45:07;;;;;;;4.20;2.30;;;;;;;23.50;55.91;102235.75;6097081;19;20014;-72
2023/08/16 08:47:14;;;;;;;5.28;2.47;;;;;;;23.86;56.42;102240.25;6095499;19;20007;-73
2023/08/16 08:49:22;;;;;;;4.75;2.25;;;;;;;23.64;56.90;102235.56;6091217;19;20035;-72
2023/08/16 08:51:32;;;;;;;3.78;2.33;;;;;;;23.94;56.00;102239.69;6097249;19;20074;-72
2023/08/16 08:53:38;;;;;;;4.05;2.33;;;;;;;24.15;55.71;102239.88;6100707;19;20154;-73
2023/08/16 08:55:46;;;;;;;3.00;2.10;;;;;;;23.88;56.30;102235.59;6100307;19;20011;-73
2023/08/16 08:57:55;;;;;;;5.13;2.35;;;;;;;23.82;56.12;102242.28;6098173;19;20011;-73
2023/08/16 09:00:04;;;;;;;4.30;2.03;;;;;;;24.05;57.06;102242.41;6097909;19;20010;-71
2023/08/16 09:02:10;;;;;;;4.72;2.05;;;;;;;24.17;54.49;102243.28;6098229;19;20010;-72
2023/08/16 09:04:16;;;;;;;4.10;2.38;;;;;;;24.20;54.53;102243.94;6102921;19;20011;-72
2023/08/16 09:06:22;;;;;;;2.78;2.15;;;;;;;24.44;52.79;102253.78;6099094;19;20018;-72
2023/08/16 09:08:28;;;;;;;4.68;2.10;;;;;;;24.41;52.48;102246.81;6101549;19;20007;-72
2023/08/16 09:10:38;;;;;;;2.80;2.05;;;;;;;24.64;52.59;102241.50;6101178;19;20003;-73
2023/08/16 09:12:43;;;;;;;4.28;2.05;;;;;;;24.79;50.75;102240.28;6099934;19;20482;-72
2023/08/16 09:14:48;;;;;;;3.65;2.70;;;;;;;24.88;51.12;102242.28;6093931;19;20030;-73
2023/08/16 09:16:59;;;;;;;2.30;2.00;;;;;;;24.63;51.19;102245.16;6099781;19;20645;-71
2023/08/16 09:19:04;;;;;;;4.93;2.38;;;;;;;24.45;51.74;102247.44;6100583;19;20010;-71
2023/08/16 09:21:11;;;;;;;4.35;2.00;;;;;;;24.09;52.62;102244.75;6099362;19;20039;-71
2023/08/16 09:23:15;;;;;;;6.03;2.30;;;;;;;24.43;51.71;102244.84;6103242;19;20002;-72
2023/08/16 09:25:21;;;;;;;3.97;2.00;;;;;;;24.74;50.74;102245.19;6101976;19;20027;-75
2023/08/16 09:27:31;;;;;;;5.22;2.17;;;;;;;25.25;51.11;102236.66;6097172;19;20003;-75
2023/08/16 09:29:40;;;;;;;2.95;2.03;;;;;;;25.25;49.40;102239.38;6098769;19;20014;-74
2023/08/16 09:31:47;;;;;;;3.08;2.08;;;;;;;25.33;48.60;102234.22;6096888;19;20034;-75
2023/08/16 09:33:58;;;;;;;3.08;1.90;;;;;;;25.52;48.56;102232.72;6094342;19;20565;-77
2023/08/16 09:36:06;;;;;;;4.63;1.90;;;;;;;25.72;47.64;102228.34;6093666;19;20390;-75
2023/08/16 09:38:11;;;;;;;4.85;1.90;;;;;;;25.50;47.62;102231.97;6097578;19;20096;-74
2023/08/16 09:40:19;;;;;;;3.85;2.40;;;;;;;25.23;48.25;102233.25;6099669;19;20034;-75